West Salem, Ohio
Current Conditions -  °F | °C
As of 10:52 PM on Tuesday 25 Nov 2014 (Local Time) from KMFD Reporting Station
Overcast Overcast  
Wind Chill: 22°   Ceiling: 1500
Heat Index: 29°   Visibility: 10mi
Dew Point: 23°   Wind: 7mph
Humidity: 78%   Direction: 330°NNW
Pressure: 30.17"   Gusts: NA
Location:  40.97°N, 82.11°W
Report Text: KMFD 260352Z 33006KT 10SM OVC015 M02/M05 A3017 RMK AO2 SLP229 T10171050
Loading
Personal Weather Stations






























Interactive Weather Map New forecast layout! Learn more

10-Day Weather Forecast

Advertisements
Track Severe Weather on mobile